Waddington, United Kingdom
Current Conditions -  °F | °C
As of 12:50 AM on Wednesday 26 Nov 2014 (Local Time) from EGXW Reporting Station
Overcast Overcast  
Wind Chill: 41°   Ceiling: 6000
Heat Index: 45°   Visibility: 6mi
Dew Point: 43°   Wind: 6mph
Humidity: 93%   Direction: 30°NNE
Pressure: 30.03"   Gusts: NA
Location:  53.17°N, 0.52°W
Report Text: EGXW 260050Z 03005KT 9999 FEW020 OVC060 07/06 Q1017 BLU
Loading
Personal Weather Stations






























Interactive Weather Map New forecast layout! Learn more

10-Day Weather Forecast

Advertisements
Track Severe Weather on mobile